Current Observation

FTSO31 AGGG 181050
TAF AGGH 181050Z 1812/1912 VRB03KT 9999 –SHRA FEW016 SCT027 BKN100
T 24 23 23 27 Q 1010 1009 1009 1010=
 
TAF AGGM 181050Z 1812/1912 VRB03KT 9999 –SHRA FEW016 BKN100 
Q 1010 1009 1009 1010=
 
TAF AGGN 181050Z 1812/1912 VRB03KT 9999 –SHRA FEW016 BKN100
Q 1010 1009 1009 1010= 

 

Last modified on Thursday, 18 January 2018 21:53

Weather Outlook

Support and Docs

Modern Design
Go to top